createdAt,value
2023-06-10T00:01:08.305Z,96867.67
2023-06-10T00:03:56.216Z,96865.16
2023-06-10T00:06:25.585Z,96864.95
2023-06-10T00:08:53.593Z,96866.98
2023-06-10T00:11:22.778Z,96864.30
2023-06-10T00:13:51.076Z,96865.64
2023-06-10T00:16:19.961Z,96867.84
2023-06-10T00:18:48.462Z,96870.33
2023-06-10T00:21:16.625Z,96865.46
2023-06-10T00:23:44.819Z,96864.34
2023-06-10T00:26:12.706Z,96865.80
2023-06-10T00:28:40.628Z,96869.86
2023-06-10T00:31:08.584Z,96866.86
2023-06-10T00:33:36.761Z,96870.70
2023-06-10T00:36:05.036Z,96871.20
2023-06-10T00:38:33.260Z,96874.04
2023-06-10T00:41:01.624Z,96872.99
2023-06-10T00:43:29.381Z,96869.63
2023-06-10T00:45:57.821Z,96870.88
2023-06-10T00:48:26.423Z,96870.00
2023-06-10T00:50:54.663Z,96870.48
2023-06-10T00:53:23.998Z,96874.81
2023-06-10T00:55:51.870Z,96876.45
2023-06-10T00:58:20.308Z,96874.10
2023-06-10T01:00:48.343Z,96874.23
2023-06-10T01:03:18.532Z,96872.84
2023-06-10T01:05:56.432Z,96871.23
2023-06-10T01:08:42.999Z,96873.40
2023-06-10T01:11:20.368Z,96877.64
2023-06-10T01:13:52.398Z,96876.02
2023-06-10T01:16:21.682Z,96871.92
2023-06-10T01:18:49.453Z,96872.61
2023-06-10T01:21:27.494Z,96871.75
2023-06-10T01:23:56.882Z,96866.20
2023-06-10T01:26:30.462Z,96871.25
2023-06-10T01:29:07.337Z,96873.99
2023-06-10T01:32:05.156Z,96879.53
2023-06-10T01:34:33.962Z,96876.60
2023-06-10T01:37:04.943Z,96874.35
2023-06-10T01:39:33.698Z,96878.80
2023-06-10T01:42:03.470Z,96879.25
2023-06-10T01:44:31.303Z,96874.25
2023-06-10T01:46:59.279Z,96872.39
2023-06-10T01:49:28.059Z,96873.95
2023-06-10T01:51:55.927Z,96870.76
2023-06-10T01:54:23.706Z,96867.13
2023-06-10T01:56:51.607Z,96866.52
2023-06-10T01:59:19.350Z,96863.77
2023-06-10T02:01:47.430Z,96861.19
2023-06-10T02:04:15.905Z,96859.09
2023-06-10T02:06:43.751Z,96856.83
2023-06-10T02:09:11.678Z,96856.34
2023-06-10T02:11:39.473Z,96861.79
2023-06-10T02:14:07.226Z,96860.70
2023-06-10T02:16:35.130Z,96862.26
2023-06-10T02:19:06.993Z,96859.31
2023-06-10T02:21:35.571Z,96859.39
2023-06-10T02:24:04.210Z,96858.23
2023-06-10T02:26:32.963Z,96866.74
2023-06-10T02:29:01.042Z,96871.44
2023-06-10T02:31:30.023Z,96876.10
2023-06-10T02:33:58.103Z,96877.15
2023-06-10T02:36:29.203Z,96874.65
2023-06-10T02:38:57.092Z,96879.45
2023-06-10T02:41:26.211Z,96880.27
2023-06-10T02:43:54.054Z,96877.56
2023-06-10T02:46:22.317Z,96876.82
2023-06-10T02:48:52.914Z,96879.47
2023-06-10T02:51:20.774Z,96875.92
2023-06-10T02:53:48.672Z,96878.45
2023-06-10T02:56:19.950Z,96880.30
2023-06-10T02:58:48.030Z,96881.55
2023-06-10T03:01:16.320Z,96885.34
2023-06-10T03:03:44.262Z,96882.84
2023-06-10T03:06:12.134Z,96881.14
2023-06-10T03:08:41.349Z,96882.20
2023-06-10T03:11:09.560Z,96886.59
2023-06-10T03:13:37.419Z,96885.11
2023-06-10T03:16:05.762Z,96883.17
2023-06-10T03:18:33.837Z,96882.45
2023-06-10T03:21:01.689Z,96886.27
2023-06-10T03:23:30.155Z,96885.47
2023-06-10T03:25:57.990Z,96888.00
2023-06-10T03:28:25.755Z,96892.04
2023-06-10T03:30:53.603Z,96892.44
2023-06-10T03:33:21.540Z,96890.96
2023-06-10T03:35:49.416Z,96890.63
2023-06-10T03:38:17.598Z,96891.09
2023-06-10T03:40:45.484Z,96887.05
2023-06-10T03:43:13.232Z,96885.98
2023-06-10T03:45:42.237Z,96887.02
2023-06-10T03:48:10.442Z,96882.79
2023-06-10T03:50:38.439Z,96883.16
2023-06-10T03:53:06.221Z,96884.15
2023-06-10T03:55:34.358Z,96885.91
2023-06-10T03:58:02.295Z,96887.27
2023-06-10T04:00:31.103Z,96884.45
2023-06-10T04:02:59.691Z,96881.10
2023-06-10T04:05:29.692Z,96876.70
2023-06-10T04:07:58.036Z,96872.73
2023-06-10T04:10:26.427Z,96869.81
2023-06-10T04:12:54.277Z,96871.50
2023-06-10T04:15:22.689Z,96874.12
2023-06-10T04:17:50.596Z,96875.58
2023-06-10T04:20:18.452Z,96879.65
2023-06-10T04:22:46.353Z,96880.58
2023-06-10T04:25:14.116Z,96880.19
2023-06-10T04:27:41.981Z,96878.77
2023-06-10T04:30:10.704Z,96881.49
2023-06-10T04:32:38.716Z,96881.48
2023-06-10T04:35:07.589Z,96884.27
2023-06-10T04:37:35.800Z,96888.20
2023-06-10T04:40:04.394Z,96891.30
2023-06-10T04:42:32.187Z,96888.46
2023-06-10T04:44:59.962Z,96885.12
2023-06-10T04:47:27.990Z,96881.82
2023-06-10T04:49:56.287Z,96884.95
2023-06-10T04:52:25.545Z,96885.95
2023-06-10T04:54:53.712Z,96882.32
2023-06-10T04:57:22.268Z,96884.48
2023-06-10T04:59:50.140Z,96885.09
2023-06-10T05:02:18.363Z,96884.67
2023-06-10T05:04:46.429Z,96886.09
2023-06-10T05:07:14.429Z,96884.61
2023-06-10T05:09:42.444Z,96883.46
2023-06-10T05:12:10.573Z,96890.20
2023-06-10T05:14:38.471Z,96889.62
2023-06-10T05:17:07.334Z,96893.77
2023-06-10T05:19:36.855Z,96894.71
2023-06-10T05:22:05.119Z,96896.36
2023-06-10T05:24:33.028Z,96895.14
2023-06-10T05:27:01.138Z,96897.30
2023-06-10T05:29:29.046Z,96896.31
2023-06-10T05:31:58.802Z,96897.27
2023-06-10T05:34:26.848Z,96900.35
2023-06-10T05:36:54.721Z,96901.05
2023-06-10T05:39:22.573Z,96900.73
2023-06-10T05:41:50.538Z,96899.73
2023-06-10T05:44:18.470Z,96902.23
2023-06-10T05:46:46.446Z,96907.02
2023-06-10T05:49:14.541Z,96907.25
2023-06-10T05:51:42.636Z,96907.34
2023-06-10T05:54:10.623Z,96907.88
2023-06-10T05:56:38.473Z,96904.45
2023-06-10T05:59:06.410Z,96906.39
2023-06-10T06:01:34.510Z,96908.77
2023-06-10T06:04:02.325Z,96910.44
2023-06-10T06:06:30.135Z,96912.18
2023-06-10T06:08:58.395Z,96913.44
2023-06-10T06:11:27.502Z,96911.50
2023-06-10T06:13:55.445Z,96909.48
2023-06-10T06:16:23.496Z,96909.16
2023-06-10T06:18:51.579Z,96908.95
2023-06-10T06:21:19.411Z,96909.34
2023-06-10T06:23:47.497Z,96907.08
2023-06-10T06:26:15.508Z,96907.25
2023-06-10T06:28:44.185Z,96904.67
2023-06-10T06:31:12.285Z,96904.41
2023-06-10T06:33:40.167Z,96904.77
2023-06-10T06:36:08.159Z,96903.86
2023-06-10T06:38:36.012Z,96902.59
2023-06-10T06:41:06.297Z,96899.00
2023-06-10T06:43:34.439Z,96896.84
2023-06-10T06:46:02.460Z,96896.73
2023-06-10T06:48:30.773Z,96895.17
2023-06-10T06:50:59.581Z,96895.77
2023-06-10T06:53:30.114Z,96894.02
2023-06-10T06:55:59.826Z,96895.73
2023-06-10T06:58:27.748Z,96896.32
2023-06-10T07:00:55.753Z,96893.66
2023-06-10T07:03:23.660Z,96893.98
2023-06-10T07:05:51.658Z,96893.66
2023-06-10T07:08:19.664Z,96886.73
2023-06-10T07:10:47.669Z,96886.08
2023-06-10T07:13:16.026Z,96884.94
2023-06-10T07:15:43.900Z,96887.00
2023-06-10T07:18:11.860Z,96884.38
2023-06-10T07:20:39.765Z,96883.53
2023-06-10T07:23:07.898Z,96883.34
2023-06-10T07:25:36.047Z,96882.80
2023-06-10T07:28:04.413Z,96878.20
2023-06-10T07:30:32.269Z,96876.63
2023-06-10T07:33:00.437Z,96874.23
2023-06-10T07:35:28.683Z,96874.48
2023-06-10T07:37:56.514Z,96868.57
2023-06-10T07:40:25.238Z,96872.28
2023-06-10T07:42:54.072Z,96866.96
2023-06-10T07:45:22.111Z,96871.63
2023-06-10T07:47:49.948Z,96872.45
2023-06-10T07:50:17.877Z,96872.77
2023-06-10T07:52:45.741Z,96871.73
2023-06-10T07:55:13.786Z,96864.98
2023-06-10T07:57:42.033Z,96865.90
2023-06-10T08:00:10.914Z,96869.88
2023-06-10T08:02:38.858Z,96871.45
2023-06-10T08:05:07.642Z,96868.89
2023-06-10T08:07:35.688Z,96864.63
2023-06-10T08:10:05.207Z,96865.29
2023-06-10T08:12:33.791Z,96867.03
2023-06-10T08:15:02.461Z,96865.45
2023-06-10T08:17:30.910Z,96864.54
2023-06-10T08:19:58.760Z,96863.48
2023-06-10T08:22:30.493Z,96856.42
2023-06-10T08:24:58.515Z,96851.06
2023-06-10T08:27:26.567Z,96853.94
2023-06-10T08:30:03.344Z,96849.65
2023-06-10T08:32:31.306Z,96847.34
2023-06-10T08:34:59.022Z,96843.61
2023-06-10T08:37:26.977Z,96843.52
2023-06-10T08:39:55.113Z,96836.88
2023-06-10T08:42:28.135Z,96837.11
2023-06-10T08:44:57.429Z,96836.35
2023-06-10T08:47:26.671Z,96835.55
2023-06-10T08:49:57.865Z,96834.72
2023-06-10T08:52:27.560Z,96831.84
2023-06-10T08:55:03.943Z,96833.21
2023-06-10T08:57:32.304Z,96832.87
2023-06-10T09:00:01.133Z,96835.88
2023-06-10T09:02:29.465Z,96836.11
2023-06-10T09:04:58.576Z,96836.11
2023-06-10T09:07:27.118Z,96832.94
2023-06-10T09:09:56.053Z,96832.77
2023-06-10T09:12:24.103Z,96830.55
2023-06-10T09:14:52.074Z,96826.94
2023-06-10T09:17:20.081Z,96832.02
2023-06-10T09:19:48.821Z,96826.00
2023-06-10T09:22:16.867Z,96824.13
2023-06-10T09:24:44.802Z,96821.45
2023-06-10T09:27:12.718Z,96822.83
2023-06-10T09:29:53.845Z,96819.58
2023-06-10T09:32:22.969Z,96820.58
2023-06-10T09:34:52.304Z,96816.52
2023-06-10T09:37:24.977Z,96815.99
2023-06-10T09:40:04.256Z,96817.88
2023-06-10T09:42:36.509Z,96819.89
2023-06-10T09:45:05.810Z,96816.35
2023-06-10T09:47:33.950Z,96817.31
2023-06-10T09:50:02.898Z,96818.43
2023-06-10T09:52:31.131Z,96815.44
2023-06-10T09:55:03.210Z,96812.68
2023-06-10T09:57:37.514Z,96817.19
2023-06-10T10:00:15.478Z,96813.95
2023-06-10T10:02:48.540Z,96810.70
2023-06-10T10:05:17.855Z,96809.39
2023-06-10T10:07:46.985Z,96811.67
2023-06-10T10:10:16.886Z,96810.88
2023-06-10T10:12:49.194Z,96807.96
2023-06-10T10:15:18.772Z,96810.05
2023-06-10T10:18:08.742Z,96808.89
2023-06-10T10:20:47.860Z,96807.92
2023-06-10T10:23:22.720Z,96809.41
2023-06-10T10:25:53.448Z,96806.07
2023-06-10T10:28:25.588Z,96804.90
2023-06-10T10:30:58.461Z,96802.90
2023-06-10T10:33:36.319Z,96802.27
2023-06-10T10:36:04.830Z,96805.55
2023-06-10T10:38:33.329Z,96806.40
2023-06-10T10:41:02.717Z,96805.21
2023-06-10T10:43:31.704Z,96797.79
2023-06-10T10:46:01.973Z,96798.02
2023-06-10T10:48:39.479Z,96797.15
2023-06-10T10:51:09.342Z,96792.67
2023-06-10T10:53:40.998Z,96787.06
2023-06-10T10:56:14.772Z,96786.98
2023-06-10T10:58:42.833Z,96790.22
2023-06-10T11:01:16.108Z,96792.42
2023-06-10T11:03:48.670Z,96789.16
2023-06-10T11:06:19.357Z,96787.90
2023-06-10T11:08:48.935Z,96786.49
2023-06-10T11:11:26.918Z,96788.73
2023-06-10T11:14:07.769Z,96789.77
2023-06-10T11:16:43.456Z,96792.00
2023-06-10T11:19:11.478Z,96795.66
2023-06-10T11:22:00.241Z,96801.66
2023-06-10T11:24:31.107Z,96803.07
2023-06-10T11:27:25.504Z,96805.73
2023-06-10T11:30:08.753Z,96808.14
2023-06-10T11:32:36.958Z,96810.62
2023-06-10T11:35:05.827Z,96811.19
2023-06-10T11:37:33.915Z,96810.03
2023-06-10T11:40:03.180Z,96805.33
2023-06-10T11:42:31.569Z,96800.00
2023-06-10T11:44:59.682Z,96798.51
2023-06-10T11:47:28.107Z,96796.17
2023-06-10T11:49:59.816Z,96789.07
2023-06-10T11:52:39.178Z,96787.36
2023-06-10T11:55:10.940Z,96788.30
2023-06-10T11:57:39.382Z,96788.24
2023-06-10T12:00:08.557Z,96783.02
2023-06-10T12:02:36.616Z,96778.98
2023-06-10T12:05:14.401Z,96773.20
2023-06-10T12:07:42.524Z,96766.04
2023-06-10T12:10:26.390Z,96766.95
2023-06-10T12:12:54.586Z,96768.14
2023-06-10T12:15:26.664Z,96762.00
2023-06-10T12:17:54.585Z,96764.70
2023-06-10T12:20:31.769Z,96769.17
2023-06-10T12:23:01.435Z,96773.05
2023-06-10T12:25:30.241Z,96772.67
2023-06-10T12:27:59.306Z,96764.38
2023-06-10T12:30:28.440Z,96764.33
2023-06-10T12:32:57.813Z,96756.17
2023-06-10T12:35:28.716Z,96749.98
2023-06-10T12:38:02.258Z,96746.86
2023-06-10T12:40:36.222Z,96740.56
2023-06-10T12:43:04.673Z,96743.93
2023-06-10T12:45:36.448Z,96742.31
2023-06-10T12:48:10.932Z,96736.88
2023-06-10T12:50:42.577Z,96730.43
2023-06-10T12:53:15.860Z,96728.64
2023-06-10T12:55:46.307Z,96725.64
2023-06-10T12:58:14.618Z,96719.13
2023-06-10T13:00:43.552Z,96714.59
2023-06-10T13:03:11.884Z,96713.75
2023-06-10T13:05:40.206Z,96710.33
2023-06-10T13:08:11.146Z,96708.41
2023-06-10T13:10:39.747Z,96699.38
2023-06-10T13:13:10.768Z,96693.94
2023-06-10T13:15:43.157Z,96690.80
2023-06-10T13:18:12.252Z,96691.48
2023-06-10T13:20:40.597Z,96692.55
2023-06-10T13:23:08.613Z,96690.41
2023-06-10T13:25:36.441Z,96694.19
2023-06-10T13:28:04.452Z,96694.22
2023-06-10T13:30:32.411Z,96693.83
2023-06-10T13:33:00.592Z,96690.27
2023-06-10T13:35:28.590Z,96689.39
2023-06-10T13:37:57.016Z,96683.67
2023-06-10T13:40:25.457Z,96677.41
2023-06-10T13:42:55.318Z,96665.52
2023-06-10T13:45:23.592Z,96663.96
2023-06-10T13:47:51.972Z,96665.46
2023-06-10T13:50:19.952Z,96663.42
2023-06-10T13:52:48.235Z,96664.39
2023-06-10T13:55:20.075Z,96662.35
2023-06-10T13:57:47.964Z,96661.45
2023-06-10T14:00:16.456Z,96667.45
2023-06-10T14:02:44.480Z,96669.45
2023-06-10T14:05:12.570Z,96669.38
2023-06-10T14:07:41.900Z,96669.70
2023-06-10T14:10:10.558Z,96661.70
2023-06-10T14:12:38.680Z,96661.55
2023-06-10T14:15:07.229Z,96659.95
2023-06-10T14:17:35.407Z,96656.45
2023-06-10T14:20:03.532Z,96654.07
2023-06-10T14:22:31.624Z,96653.73
2023-06-10T14:24:59.615Z,96647.54
2023-06-10T14:27:27.418Z,96644.83
2023-06-10T14:29:55.385Z,96647.88
2023-06-10T14:32:23.345Z,96651.97
2023-06-10T14:34:52.025Z,96656.05
2023-06-10T14:37:19.962Z,96657.16
2023-06-10T14:39:48.163Z,96652.78
2023-06-10T14:42:16.216Z,96655.63
2023-06-10T14:44:44.125Z,96656.09
2023-06-10T14:47:11.969Z,96654.46
2023-06-10T14:49:39.904Z,96652.32
2023-06-10T14:52:08.110Z,96648.75
2023-06-10T14:54:36.080Z,96649.13
2023-06-10T14:57:04.211Z,96653.45
2023-06-10T14:59:32.216Z,96656.55
2023-06-10T15:02:01.879Z,96656.73
2023-06-10T15:04:30.180Z,96658.31
2023-06-10T15:06:58.142Z,96656.53
2023-06-10T15:09:26.313Z,96653.54
2023-06-10T15:11:54.275Z,96648.25
2023-06-10T15:14:22.814Z,96650.60
2023-06-10T15:16:50.864Z,96657.90
2023-06-10T15:19:19.086Z,96668.15
2023-06-10T15:21:47.202Z,96667.49
2023-06-10T15:24:15.763Z,96666.67
2023-06-10T15:26:43.946Z,96664.80
2023-06-10T15:29:12.110Z,96664.45
2023-06-10T15:31:39.977Z,96663.48
2023-06-10T15:34:09.741Z,96664.79
2023-06-10T15:36:37.951Z,96668.05
2023-06-10T15:39:07.910Z,96669.77
2023-06-10T15:41:36.361Z,96674.11
2023-06-10T15:44:04.487Z,96676.77
2023-06-10T15:46:32.905Z,96679.98
2023-06-10T15:49:00.929Z,96676.95
2023-06-10T15:51:29.010Z,96673.01
2023-06-10T15:53:57.105Z,96670.02
2023-06-10T15:56:26.157Z,96666.33
2023-06-10T15:58:54.058Z,96666.48
2023-06-10T16:01:22.070Z,96666.45
2023-06-10T16:03:49.996Z,96673.98
2023-06-10T16:06:18.161Z,96676.45
2023-06-10T16:08:47.169Z,96674.05
2023-06-10T16:11:15.187Z,96674.60
2023-06-10T16:13:43.058Z,96677.02
2023-06-10T16:16:11.231Z,96682.27
2023-06-10T16:18:39.329Z,96684.10
2023-06-10T16:21:07.290Z,96679.39
2023-06-10T16:23:39.420Z,96677.42
2023-06-10T16:26:07.718Z,96677.58
2023-06-10T16:28:41.482Z,96683.02
2023-06-10T16:31:11.611Z,96678.70
2023-06-10T16:33:39.775Z,96676.91
2023-06-10T16:36:07.812Z,96679.41
2023-06-10T16:38:35.762Z,96675.92
2023-06-10T16:41:03.537Z,96684.85
2023-06-10T16:43:31.452Z,96691.04
2023-06-10T16:45:59.592Z,96700.30
2023-06-10T16:48:27.642Z,96704.35
2023-06-10T16:50:55.646Z,96708.34
2023-06-10T16:53:23.488Z,96715.35
2023-06-10T16:55:51.288Z,96722.30
2023-06-10T16:58:19.141Z,96725.58
2023-06-10T17:00:47.296Z,96729.83
2023-06-10T17:03:15.127Z,96732.27
2023-06-10T17:05:43.632Z,96738.82
2023-06-10T17:08:11.811Z,96739.86
2023-06-10T17:10:39.926Z,96736.48
2023-06-10T17:13:08.002Z,96737.27
2023-06-10T17:15:36.360Z,96739.49
2023-06-10T17:18:04.541Z,96741.81
2023-06-10T17:20:33.714Z,96744.96
2023-06-10T17:23:01.832Z,96746.48
2023-06-10T17:25:29.722Z,96740.70
2023-06-10T17:27:57.692Z,96738.55
2023-06-10T17:30:26.007Z,96740.29
2023-06-10T17:32:54.494Z,96746.55
2023-06-10T17:35:22.448Z,96748.00
2023-06-10T17:37:50.314Z,96753.83
2023-06-10T17:40:18.497Z,96761.16
2023-06-10T17:42:47.240Z,96763.64
2023-06-10T17:45:15.586Z,96765.52
2023-06-10T17:47:43.620Z,96764.71
2023-06-10T17:50:11.606Z,96772.38
2023-06-10T17:52:39.627Z,96779.66
2023-06-10T17:55:08.041Z,96784.60
2023-06-10T17:57:36.252Z,96788.20
2023-06-10T18:00:04.670Z,96794.46
2023-06-10T18:02:32.874Z,96795.38
2023-06-10T18:05:01.106Z,96792.16
2023-06-10T18:07:29.151Z,96793.54
2023-06-10T18:09:57.060Z,96797.60
2023-06-10T18:12:25.041Z,96796.01
2023-06-10T18:14:53.132Z,96797.00
2023-06-10T18:17:21.190Z,96801.81
2023-06-10T18:19:49.027Z,96804.77
2023-06-10T18:22:16.863Z,96804.18
2023-06-10T18:24:44.787Z,96803.27
2023-06-10T18:27:16.629Z,96810.46
2023-06-10T18:29:45.009Z,96812.21
2023-06-10T18:32:13.044Z,96818.49
2023-06-10T18:34:41.359Z,96826.54
2023-06-10T18:37:09.241Z,96825.00
2023-06-10T18:39:37.189Z,96821.82
2023-06-10T18:42:07.087Z,96820.48
2023-06-10T18:44:35.184Z,96822.60
2023-06-10T18:47:03.279Z,96827.08
2023-06-10T18:49:31.355Z,96826.92
2023-06-10T18:51:59.340Z,96825.33
2023-06-10T18:54:27.556Z,96828.14
2023-06-10T18:56:56.579Z,96830.67
2023-06-10T18:59:25.239Z,96834.09
2023-06-10T19:01:53.120Z,96832.27
2023-06-10T19:04:20.981Z,96827.42
2023-06-10T19:06:49.233Z,96823.46
2023-06-10T19:09:17.388Z,96824.98
2023-06-10T19:11:45.283Z,96831.33
2023-06-10T19:14:13.246Z,96833.55
2023-06-10T19:16:41.642Z,96835.86
2023-06-10T19:19:09.527Z,96834.20
2023-06-10T19:21:37.434Z,96842.88
2023-06-10T19:24:05.832Z,96846.85
2023-06-10T19:26:33.694Z,96845.35
2023-06-10T19:29:03.211Z,96844.27
2023-06-10T19:31:31.213Z,96849.23
2023-06-10T19:33:59.214Z,96849.71
2023-06-10T19:36:27.428Z,96848.14
2023-06-10T19:38:55.592Z,96847.00
2023-06-10T19:41:24.510Z,96845.17
2023-06-10T19:43:52.441Z,96850.14
2023-06-10T19:46:21.706Z,96849.59
2023-06-10T19:48:50.166Z,96844.43
2023-06-10T19:51:18.760Z,96844.91
2023-06-10T19:53:47.886Z,96847.98
2023-06-10T19:56:19.989Z,96852.50
2023-06-10T19:58:52.421Z,96857.57
2023-06-10T20:01:20.338Z,96857.02
2023-06-10T20:03:48.902Z,96856.43
2023-06-10T20:06:16.999Z,96858.05
2023-06-10T20:08:44.936Z,96858.27
2023-06-10T20:11:12.968Z,96851.21
2023-06-10T20:13:41.179Z,96853.89
2023-06-10T20:16:11.257Z,96850.13
2023-06-10T20:18:39.453Z,96848.46
2023-06-10T20:21:09.391Z,96857.44
2023-06-10T20:23:37.226Z,96852.60
2023-06-10T20:26:05.426Z,96854.48
2023-06-10T20:28:33.350Z,96858.06
2023-06-10T20:31:02.016Z,96860.00
2023-06-10T20:33:30.665Z,96857.84
2023-06-10T20:35:58.736Z,96858.74
2023-06-10T20:38:26.819Z,96857.17
2023-06-10T20:40:54.802Z,96858.82
2023-06-10T20:43:22.711Z,96855.15
2023-06-10T20:45:51.682Z,96850.20
2023-06-10T20:48:19.880Z,96852.10
2023-06-10T20:50:47.980Z,96853.92
2023-06-10T20:53:16.054Z,96851.54
2023-06-10T20:55:44.050Z,96846.67
2023-06-10T20:58:11.981Z,96846.92
2023-06-10T21:00:39.787Z,96838.95
2023-06-10T21:03:08.311Z,96833.81
2023-06-10T21:05:37.192Z,96839.17
2023-06-10T21:08:05.668Z,96840.85
2023-06-10T21:10:33.501Z,96846.71
2023-06-10T21:13:01.354Z,96844.38
2023-06-10T21:15:29.328Z,96848.69
2023-06-10T21:17:57.202Z,96846.95
2023-06-10T21:20:25.143Z,96846.83
2023-06-10T21:22:53.250Z,96849.39
2023-06-10T21:25:21.331Z,96848.17
2023-06-10T21:27:49.765Z,96844.21
2023-06-10T21:30:17.668Z,96840.45
2023-06-10T21:32:46.190Z,96836.14
2023-06-10T21:35:14.191Z,96835.83
2023-06-10T21:37:42.149Z,96834.09
2023-06-10T21:40:10.454Z,96833.85
2023-06-10T21:42:38.392Z,96837.28
2023-06-10T21:45:06.683Z,96842.92
2023-06-10T21:47:34.600Z,96839.20
2023-06-10T21:50:02.682Z,96834.75
2023-06-10T21:52:31.532Z,96834.61
2023-06-10T21:54:59.426Z,96834.52
2023-06-10T21:57:27.358Z,96835.11
2023-06-10T21:59:55.210Z,96834.24
2023-06-10T22:02:23.658Z,96835.08
2023-06-10T22:04:51.671Z,96829.77
2023-06-10T22:07:19.552Z,96828.36
2023-06-10T22:09:50.009Z,96831.02
2023-06-10T22:12:18.389Z,96826.83
2023-06-10T22:14:46.371Z,96823.38
2023-06-10T22:17:14.444Z,96824.86
2023-06-10T22:19:44.363Z,96826.14
2023-06-10T22:22:12.290Z,96819.59
2023-06-10T22:24:40.186Z,96818.63
2023-06-10T22:27:09.435Z,96816.85
2023-06-10T22:29:38.209Z,96821.42
2023-06-10T22:32:07.146Z,96824.80
2023-06-10T22:34:36.253Z,96829.16
2023-06-10T22:37:04.253Z,96829.87
2023-06-10T22:39:32.048Z,96827.20
2023-06-10T22:41:59.857Z,96828.60
2023-06-10T22:44:28.194Z,96828.27
2023-06-10T22:46:55.995Z,96825.31
2023-06-10T22:49:23.855Z,96832.05
2023-06-10T22:51:51.734Z,96835.67
2023-06-10T22:54:19.703Z,96834.90
2023-06-10T22:56:47.525Z,96836.80
2023-06-10T22:59:15.455Z,96833.31
2023-06-10T23:01:43.461Z,96832.77
2023-06-10T23:04:11.447Z,96833.19
2023-06-10T23:06:39.575Z,96835.55
2023-06-10T23:09:07.505Z,96829.48
2023-06-10T23:11:35.413Z,96828.19
2023-06-10T23:14:03.663Z,96826.89
2023-06-10T23:16:31.636Z,96829.50
2023-06-10T23:18:59.909Z,96829.98
2023-06-10T23:21:34.658Z,96830.21
2023-06-10T23:24:02.649Z,96832.81
2023-06-10T23:26:33.055Z,96830.03
2023-06-10T23:29:01.005Z,96823.40
2023-06-10T23:31:29.148Z,96830.35
2023-06-10T23:33:59.119Z,96831.12
2023-06-10T23:36:26.943Z,96825.29
2023-06-10T23:38:54.777Z,96824.87
2023-06-10T23:41:22.572Z,96824.86
2023-06-10T23:43:50.452Z,96822.53
2023-06-10T23:46:18.624Z,96822.77
2023-06-10T23:48:46.515Z,96815.91
2023-06-10T23:51:14.526Z,96816.10
2023-06-10T23:53:42.445Z,96816.02
2023-06-10T23:56:10.533Z,96815.41
2023-06-10T23:58:38.434Z,96814.19
